sensor_id;sensor_type;location;lat;lon;timestamp;pressure;altitude;pressure_sealevel;temperature;humidity
69535;BME280;56754;51.568;5.048;2023-05-28T00:01:50;102027.63;;;19.08;56.61
69535;BME280;56754;51.568;5.048;2023-05-28T00:04:15;102026.03;;;19.07;56.38
69535;BME280;56754;51.568;5.048;2023-05-28T00:06:41;102024.47;;;19.06;56.41
69535;BME280;56754;51.568;5.048;2023-05-28T00:09:07;102027.84;;;19.03;56.74
69535;BME280;56754;51.568;5.048;2023-05-28T00:11:33;102035.19;;;19.02;56.71
69535;BME280;56754;51.568;5.048;2023-05-28T00:13:58;102034.72;;;19.00;56.88
69535;BME280;56754;51.568;5.048;2023-05-28T00:16:23;102030.75;;;18.98;56.77
69535;BME280;56754;51.568;5.048;2023-05-28T00:18:48;102030.75;;;18.98;56.91
69535;BME280;56754;51.568;5.048;2023-05-28T00:21:14;102026.81;;;18.95;56.71
69535;BME280;56754;51.568;5.048;2023-05-28T00:23:39;102026.03;;;18.95;56.87
69535;BME280;56754;51.568;5.048;2023-05-28T00:26:04;102028.25;;;18.93;56.49
69535;BME280;56754;51.568;5.048;2023-05-28T00:28:30;102024.34;;;18.90;56.56
69535;BME280;56754;51.568;5.048;2023-05-28T00:30:55;102030.88;;;18.89;56.94
69535;BME280;56754;51.568;5.048;2023-05-28T00:33:20;102026.59;;;18.88;56.40
69535;BME280;56754;51.568;5.048;2023-05-28T00:35:46;102032.31;;;18.86;56.82
69535;BME280;56754;51.568;5.048;2023-05-28T00:38:11;102023.75;;;18.84;57.31
69535;BME280;56754;51.568;5.048;2023-05-28T00:40:36;102022.16;;;18.83;57.04
69535;BME280;56754;51.568;5.048;2023-05-28T00:43:02;102020.59;;;18.82;57.39
69535;BME280;56754;51.568;5.048;2023-05-28T00:45:27;102025.53;;;18.80;57.24
69535;BME280;56754;51.568;5.048;2023-05-28T00:47:53;102023.19;;;18.79;56.46
69535;BME280;56754;51.568;5.048;2023-05-28T00:50:18;102021.94;;;18.76;57.12
69535;BME280;56754;51.568;5.048;2023-05-28T00:52:46;102021.47;;;18.74;57.63
69535;BME280;56754;51.568;5.048;2023-05-28T00:55:15;102022.13;;;18.71;57.66
69535;BME280;56754;51.568;5.048;2023-05-28T00:57:42;102019.09;;;18.73;57.24
69535;BME280;56754;51.568;5.048;2023-05-28T01:00:08;102021.31;;;18.71;57.56
69535;BME280;56754;51.568;5.048;2023-05-28T01:02:34;102018.94;;;18.69;57.69
69535;BME280;56754;51.568;5.048;2023-05-28T01:04:59;102017.38;;;18.68;57.07
69535;BME280;56754;51.568;5.048;2023-05-28T01:07:25;102020.06;;;18.68;57.40
69535;BME280;56754;51.568;5.048;2023-05-28T01:09:51;102016.47;;;18.64;57.00
69535;BME280;56754;51.568;5.048;2023-05-28T01:12:17;102010.25;;;18.63;57.43
69535;BME280;56754;51.568;5.048;2023-05-28T01:14:42;102013.28;;;18.62;56.73
69535;BME280;56754;51.568;5.048;2023-05-28T01:17:08;102019.06;;;18.60;57.32
69535;BME280;56754;51.568;5.048;2023-05-28T01:19:33;102016.66;;;18.59;57.85
69535;BME280;56754;51.568;5.048;2023-05-28T01:22:03;102016.22;;;18.57;58.02
69535;BME280;56754;51.568;5.048;2023-05-28T01:24:31;102014.63;;;18.56;56.94
69535;BME280;56754;51.568;5.048;2023-05-28T01:26:57;102008.44;;;18.55;57.71
69535;BME280;56754;51.568;5.048;2023-05-28T01:29:22;102016.88;;;18.54;57.91
69535;BME280;56754;51.568;5.048;2023-05-28T01:31:47;102020.72;;;18.53;57.64
69535;BME280;56754;51.568;5.048;2023-05-28T01:34:13;102022.97;;;18.51;57.72
69535;BME280;56754;51.568;5.048;2023-05-28T01:36:48;102021.38;;;18.50;57.22
69535;BME280;56754;51.568;5.048;2023-05-28T01:39:17;102013.59;;;18.48;57.99
69535;BME280;56754;51.568;5.048;2023-05-28T01:41:45;102010.09;;;18.48;57.37
69535;BME280;56754;51.568;5.048;2023-05-28T01:44:12;102009.63;;;18.46;57.61
69535;BME280;56754;51.568;5.048;2023-05-28T01:46:40;102006.13;;;18.45;57.55
69535;BME280;56754;51.568;5.048;2023-05-28T01:49:06;102000.28;;;18.43;57.74
69535;BME280;56754;51.568;5.048;2023-05-28T01:51:32;101995.19;;;18.41;58.01
69535;BME280;56754;51.568;5.048;2023-05-28T01:53:57;101992.81;;;18.40;58.12
69535;BME280;56754;51.568;5.048;2023-05-28T01:56:22;101995.84;;;18.38;57.80
69535;BME280;56754;51.568;5.048;2023-05-28T01:58:48;101999.69;;;18.37;58.35
69535;BME280;56754;51.568;5.048;2023-05-28T02:03:41;101977.56;;;18.35;58.31
69535;BME280;56754;51.568;5.048;2023-05-28T02:06:06;101983.34;;;18.34;58.06
69535;BME280;56754;51.568;5.048;2023-05-28T02:08:32;101987.16;;;18.33;57.89
69535;BME280;56754;51.568;5.048;2023-05-28T02:10:57;101990.19;;;18.31;58.07
69535;BME280;56754;51.568;5.048;2023-05-28T02:13:22;101985.13;;;18.30;58.21
69535;BME280;56754;51.568;5.048;2023-05-28T02:15:48;101989.75;;;18.29;57.99
69535;BME280;56754;51.568;5.048;2023-05-28T02:18:13;101981.94;;;18.28;58.21
69535;BME280;56754;51.568;5.048;2023-05-28T02:20:38;101987.69;;;18.26;58.26
69535;BME280;56754;51.568;5.048;2023-05-28T02:23:04;101981.50;;;18.26;58.31
69535;BME280;56754;51.568;5.048;2023-05-28T02:25:29;101977.19;;;18.25;57.95
69535;BME280;56754;51.568;5.048;2023-05-28T02:27:54;101974.84;;;18.23;58.33
69535;BME280;56754;51.568;5.048;2023-05-28T02:30:20;101983.28;;;18.22;58.29
69535;BME280;56754;51.568;5.048;2023-05-28T02:32:45;101982.47;;;18.21;58.44
69535;BME280;56754;51.568;5.048;2023-05-28T02:35:10;101984.75;;;18.19;58.54
69535;BME280;56754;51.568;5.048;2023-05-28T02:37:35;101987.78;;;18.17;57.63
69535;BME280;56754;51.568;5.048;2023-05-28T02:40:01;101987.78;;;18.17;58.26
69535;BME280;56754;51.568;5.048;2023-05-28T02:42:26;101994.63;;;18.15;58.54
69535;BME280;56754;51.568;5.048;2023-05-28T02:44:51;101993.06;;;18.14;58.62
69535;BME280;56754;51.568;5.048;2023-05-28T02:47:17;101998.47;;;18.14;58.57
69535;BME280;56754;51.568;5.048;2023-05-28T02:49:42;102002.63;;;18.11;58.62
69535;BME280;56754;51.568;5.048;2023-05-28T02:52:07;102000.25;;;18.10;58.58
69535;BME280;56754;51.568;5.048;2023-05-28T02:54:32;101997.09;;;18.08;58.56
69535;BME280;56754;51.568;5.048;2023-05-28T02:56:58;102002.50;;;18.08;58.67
69535;BME280;56754;51.568;5.048;2023-05-28T02:59:23;101991.22;;;18.06;58.60
69535;BME280;56754;51.568;5.048;2023-05-28T03:01:48;101985.34;;;18.04;58.38
69535;BME280;56754;51.568;5.048;2023-05-28T03:04:14;101991.88;;;18.03;58.78
69535;BME280;56754;51.568;5.048;2023-05-28T03:06:39;101990.31;;;18.02;58.75
69535;BME280;56754;51.568;5.048;2023-05-28T03:09:04;101990.63;;;18.00;58.61
69535;BME280;56754;51.568;5.048;2023-05-28T03:11:30;101989.38;;;17.98;58.46
69535;BME280;56754;51.568;5.048;2023-05-28T03:13:55;101990.50;;;17.96;58.62
69535;BME280;56754;51.568;5.048;2023-05-28T03:16:20;101991.63;;;17.95;57.82
69535;BME280;56754;51.568;5.048;2023-05-28T03:18:45;101993.88;;;17.93;58.92
69535;BME280;56754;51.568;5.048;2023-05-28T03:21:11;101988.00;;;17.91;58.70
69535;BME280;56754;51.568;5.048;2023-05-28T03:23:36;101999.16;;;17.90;58.70
69535;BME280;56754;51.568;5.048;2023-05-28T03:26:01;101995.63;;;17.89;58.95
69535;BME280;56754;51.568;5.048;2023-05-28T03:28:27;102004.09;;;17.88;58.61
69535;BME280;56754;51.568;5.048;2023-05-28T03:30:55;102000.94;;;17.86;58.19
69535;BME280;56754;51.568;5.048;2023-05-28T03:33:20;102006.69;;;17.84;59.10
69535;BME280;56754;51.568;5.048;2023-05-28T03:35:46;102006.22;;;17.82;58.76
69535;BME280;56754;51.568;5.048;2023-05-28T03:38:11;102001.94;;;17.81;58.95
69535;BME280;56754;51.568;5.048;2023-05-28T03:40:36;102008.44;;;17.80;58.64
69535;BME280;56754;51.568;5.048;2023-05-28T03:43:01;102006.09;;;17.79;58.99
69535;BME280;56754;51.568;5.048;2023-05-28T03:45:27;102009.06;;;17.77;58.52
69535;BME280;56754;51.568;5.048;2023-05-28T03:47:52;102010.19;;;17.76;58.47
69535;BME280;56754;51.568;5.048;2023-05-28T03:50:17;102006.72;;;17.76;58.93
69535;BME280;56754;51.568;5.048;2023-05-28T03:52:43;102002.41;;;17.74;58.57
69535;BME280;56754;51.568;5.048;2023-05-28T03:55:08;102005.75;;;17.71;58.82
69535;BME280;56754;51.568;5.048;2023-05-28T03:57:33;102008.47;;;17.71;58.58
69535;BME280;56754;51.568;5.048;2023-05-28T03:59:59;102010.38;;;17.71;59.19
69535;BME280;56754;51.568;5.048;2023-05-28T04:02:27;102004.53;;;17.69;58.89
69535;BME280;56754;51.568;5.048;2023-05-28T04:04:52;102008.34;;;17.68;58.29
69535;BME280;56754;51.568;5.048;2023-05-28T04:07:17;102005.97;;;17.66;58.58
69535;BME280;56754;51.568;5.048;2023-05-28T04:09:42;102010.25;;;17.67;59.22
69535;BME280;56754;51.568;5.048;2023-05-28T04:12:08;102009.00;;;17.65;58.84
69535;BME280;56754;51.568;5.048;2023-05-28T04:14:33;102007.41;;;17.64;59.00
69535;BME280;56754;51.568;5.048;2023-05-28T04:16:58;102005.81;;;17.63;58.61
69535;BME280;56754;51.568;5.048;2023-05-28T04:19:24;102010.91;;;17.64;58.90
69535;BME280;56754;51.568;5.048;2023-05-28T04:21:49;102012.81;;;17.64;59.69
69535;BME280;56754;51.568;5.048;2023-05-28T04:24:15;102014.75;;;17.63;58.77
69535;BME280;56754;51.568;5.048;2023-05-28T04:26:40;102020.16;;;17.63;59.55
69535;BME280;56754;51.568;5.048;2023-05-28T04:29:05;102027.44;;;17.63;59.65
69535;BME280;56754;51.568;5.048;2023-05-28T04:31:31;102030.97;;;17.63;59.43
69535;BME280;56754;51.568;5.048;2023-05-28T04:33:56;102029.06;;;17.64;59.17
69535;BME280;56754;51.568;5.048;2023-05-28T04:36:21;102024.75;;;17.63;58.97
69535;BME280;56754;51.568;5.048;2023-05-28T04:38:47;102029.06;;;17.64;59.45
69535;BME280;56754;51.568;5.048;2023-05-28T04:41:12;102031.75;;;17.64;59.18
69535;BME280;56754;51.568;5.048;2023-05-28T04:43:37;102025.22;;;17.65;59.31
69535;BME280;56754;51.568;5.048;2023-05-28T04:46:03;102042.22;;;17.65;59.28
69535;BME280;56754;51.568;5.048;2023-05-28T04:48:28;102043.03;;;17.66;59.52
69535;BME280;56754;51.568;5.048;2023-05-28T04:50:54;102026.81;;;17.66;59.34
69535;BME280;56754;51.568;5.048;2023-05-28T04:53:19;102038.44;;;17.66;59.31
69535;BME280;56754;51.568;5.048;2023-05-28T04:55:45;102033.00;;;17.66;59.56
69535;BME280;56754;51.568;5.048;2023-05-28T04:58:10;102036.16;;;17.68;59.40
69535;BME280;56754;51.568;5.048;2023-05-28T05:00:35;102041.56;;;17.68;59.19
69535;BME280;56754;51.568;5.048;2023-05-28T05:03:01;102037.78;;;17.69;59.40
69535;BME280;56754;51.568;5.048;2023-05-28T05:05:26;102045.53;;;17.71;59.04
69535;BME280;56754;51.568;5.048;2023-05-28T05:07:52;102044.44;;;17.72;58.29
69535;BME280;56754;51.568;5.048;2023-05-28T05:10:17;102042.50;;;17.72;59.06
69535;BME280;56754;51.568;5.048;2023-05-28T05:12:43;102039.47;;;17.74;58.96
69535;BME280;56754;51.568;5.048;2023-05-28T05:15:08;102034.53;;;17.76;58.71
69535;BME280;56754;51.568;5.048;2023-05-28T05:17:33;102038.03;;;17.77;58.98
69535;BME280;56754;51.568;5.048;2023-05-28T05:20:02;102041.22;;;17.79;58.95
69535;BME280;56754;51.568;5.048;2023-05-28T05:22:27;102047.44;;;17.79;59.05
69535;BME280;56754;51.568;5.048;2023-05-28T05:24:53;102039.31;;;17.79;58.15
69535;BME280;56754;51.568;5.048;2023-05-28T05:27:18;102045.97;;;17.82;58.40
69535;BME280;56754;51.568;5.048;2023-05-28T05:29:43;102054.22;;;17.85;58.58
69535;BME280;56754;51.568;5.048;2023-05-28T05:32:09;102056.28;;;17.88;58.69
69535;BME280;56754;51.568;5.048;2023-05-28T05:34:35;102047.50;;;17.91;58.04
69535;BME280;56754;51.568;5.048;2023-05-28T05:37:00;102054.16;;;17.94;58.70
69535;BME280;56754;51.568;5.048;2023-05-28T05:39:26;102048.88;;;17.98;58.27
69535;BME280;56754;51.568;5.048;2023-05-28T05:41:52;102058.25;;;18.00;58.16
69535;BME280;56754;51.568;5.048;2023-05-28T05:44:17;102056.47;;;18.04;58.18
69535;BME280;56754;51.568;5.048;2023-05-28T05:46:42;102050.06;;;18.09;57.98
69535;BME280;56754;51.568;5.048;2023-05-28T05:49:11;102052.13;;;18.12;57.84
69535;BME280;56754;51.568;5.048;2023-05-28T05:51:36;102054.94;;;18.15;57.58
69535;BME280;56754;51.568;5.048;2023-05-28T05:54:03;102041.56;;;18.19;57.14
69535;BME280;56754;51.568;5.048;2023-05-28T05:56:29;102059.84;;;18.22;56.75
69535;BME280;56754;51.568;5.048;2023-05-28T05:58:54;102056.50;;;18.25;56.69
69535;BME280;56754;51.568;5.048;2023-05-28T06:01:20;102059.63;;;18.27;55.96
69535;BME280;56754;51.568;5.048;2023-05-28T06:03:46;102063.94;;;18.28;55.93
69535;BME280;56754;51.568;5.048;2023-05-28T06:06:11;102062.47;;;18.31;55.92
69535;BME280;56754;51.568;5.048;2023-05-28T06:08:36;102052.09;;;18.33;55.61
69535;BME280;56754;51.568;5.048;2023-05-28T06:11:01;102052.56;;;18.35;55.04
69535;BME280;56754;51.568;5.048;2023-05-28T06:13:27;102051.13;;;18.37;55.53
69535;BME280;56754;51.568;5.048;2023-05-28T06:15:52;102057.78;;;18.40;55.97
69535;BME280;56754;51.568;5.048;2023-05-28T06:18:17;102052.81;;;18.42;55.68
69535;BME280;56754;51.568;5.048;2023-05-28T06:20:43;102059.03;;;18.42;55.88
69535;BME280;56754;51.568;5.048;2023-05-28T06:23:08;102052.50;;;18.44;55.45
69535;BME280;56754;51.568;5.048;2023-05-28T06:25:34;102056.78;;;18.45;56.16
69535;BME280;56754;51.568;5.048;2023-05-28T06:27:59;102052.94;;;18.46;56.00
69535;BME280;56754;51.568;5.048;2023-05-28T06:30:24;102055.66;;;18.46;55.92
69535;BME280;56754;51.568;5.048;2023-05-28T06:32:50;102046.41;;;18.47;55.96
69535;BME280;56754;51.568;5.048;2023-05-28T06:35:15;102049.91;;;18.47;55.40
69535;BME280;56754;51.568;5.048;2023-05-28T06:37:40;102053.41;;;18.48;55.21
69535;BME280;56754;51.568;5.048;2023-05-28T06:40:06;102061.22;;;18.49;55.94
69535;BME280;56754;51.568;5.048;2023-05-28T06:42:32;102061.66;;;18.51;56.43
69535;BME280;56754;51.568;5.048;2023-05-28T06:44:57;102054.00;;;18.53;56.47
69535;BME280;56754;51.568;5.048;2023-05-28T06:47:23;102056.38;;;18.55;56.47
69535;BME280;56754;51.568;5.048;2023-05-28T06:49:48;102063.03;;;18.57;56.26
69535;BME280;56754;51.568;5.048;2023-05-28T06:52:13;102055.72;;;18.58;56.07
69535;BME280;56754;51.568;5.048;2023-05-28T06:54:39;102052.34;;;18.61;56.43
69535;BME280;56754;51.568;5.048;2023-05-28T06:57:04;102047.34;;;18.63;56.53
69535;BME280;56754;51.568;5.048;2023-05-28T06:59:29;102046.69;;;18.66;56.74
69535;BME280;56754;51.568;5.048;2023-05-28T07:01:55;102040.59;;;18.69;56.45
69535;BME280;56754;51.568;5.048;2023-05-28T07:04:20;102043.78;;;18.71;56.51
69535;BME280;56754;51.568;5.048;2023-05-28T07:06:45;102044.75;;;18.75;56.26
69535;BME280;56754;51.568;5.048;2023-05-28T07:09:11;102057.59;;;18.78;55.98
69535;BME280;56754;51.568;5.048;2023-05-28T07:11:36;102061.53;;;18.81;56.31
69535;BME280;56754;51.568;5.048;2023-05-28T07:14:01;102063.13;;;18.82;56.18
69535;BME280;56754;51.568;5.048;2023-05-28T07:16:26;102063.25;;;18.85;55.97
69535;BME280;56754;51.568;5.048;2023-05-28T07:18:52;102065.63;;;18.87;56.16
69535;BME280;56754;51.568;5.048;2023-05-28T07:21:17;102066.09;;;18.89;55.82
69535;BME280;56754;51.568;5.048;2023-05-28T07:23:42;102064.63;;;18.92;55.86
69535;BME280;56754;51.568;5.048;2023-05-28T07:26:08;102073.22;;;18.94;55.85
69535;BME280;56754;51.568;5.048;2023-05-28T07:28:33;102070.94;;;18.96;55.65
69535;BME280;56754;51.568;5.048;2023-05-28T07:30:58;102072.19;;;18.98;55.73
69535;BME280;56754;51.568;5.048;2023-05-28T07:33:24;102065.66;;;18.99;55.84
69535;BME280;56754;51.568;5.048;2023-05-28T07:35:49;102066.91;;;19.02;55.75
69535;BME280;56754;51.568;5.048;2023-05-28T07:38:14;102069.28;;;19.03;55.93
69535;BME280;56754;51.568;5.048;2023-05-28T07:40:43;102073.22;;;19.06;55.68
69535;BME280;56754;51.568;5.048;2023-05-28T07:43:08;102082.63;;;19.08;55.64
69535;BME280;56754;51.568;5.048;2023-05-28T07:45:33;102075.72;;;19.11;55.25
69535;BME280;56754;51.568;5.048;2023-05-28T07:48:00;102073.44;;;19.13;54.90
69535;BME280;56754;51.568;5.048;2023-05-28T07:50:26;102070.41;;;19.15;54.80
69535;BME280;56754;51.568;5.048;2023-05-28T07:52:51;102067.34;;;19.16;54.87
69535;BME280;56754;51.568;5.048;2023-05-28T07:55:16;102073.25;;;19.18;54.87
69535;BME280;56754;51.568;5.048;2023-05-28T07:57:42;102074.81;;;19.19;54.83
69535;BME280;56754;51.568;5.048;2023-05-28T08:00:07;102081.47;;;19.22;54.59
69535;BME280;56754;51.568;5.048;2023-05-28T08:02:33;102073.03;;;19.23;54.50
69535;BME280;56754;51.568;5.048;2023-05-28T08:04:58;102084.31;;;19.25;54.21
69535;BME280;56754;51.568;5.048;2023-05-28T08:07:24;102076.63;;;19.27;54.09
69535;BME280;56754;51.568;5.048;2023-05-28T08:09:49;102077.56;;;19.31;53.83
69535;BME280;56754;51.568;5.048;2023-05-28T08:12:14;102071.78;;;19.33;53.74
69535;BME280;56754;51.568;5.048;2023-05-28T08:14:40;102074.16;;;19.35;53.78
69535;BME280;56754;51.568;5.048;2023-05-28T08:17:05;102078.09;;;19.37;54.03
69535;BME280;56754;51.568;5.048;2023-05-28T08:19:30;102069.28;;;19.40;55.12
69535;BME280;56754;51.568;5.048;2023-05-28T08:21:56;102074.38;;;19.42;54.90
69535;BME280;56754;51.568;5.048;2023-05-28T08:24:21;102064.78;;;19.44;54.59
69535;BME280;56754;51.568;5.048;2023-05-28T08:26:46;102073.38;;;19.46;54.73
69535;BME280;56754;51.568;5.048;2023-05-28T08:29:12;102060.25;;;19.48;54.52
69535;BME280;56754;51.568;5.048;2023-05-28T08:31:37;102065.34;;;19.50;54.80
69535;BME280;56754;51.568;5.048;2023-05-28T08:34:02;102056.53;;;19.53;55.34
69535;BME280;56754;51.568;5.048;2023-05-28T08:36:30;102060.50;;;19.55;55.38
69535;BME280;56754;51.568;5.048;2023-05-28T08:38:55;102059.03;;;19.58;55.70
69535;BME280;56754;51.568;5.048;2023-05-28T08:41:23;102060.25;;;19.61;55.37
69535;BME280;56754;51.568;5.048;2023-05-28T08:43:48;102050.22;;;19.61;55.33
69535;BME280;56754;51.568;5.048;2023-05-28T08:46:15;102060.69;;;19.63;55.26
69535;BME280;56754;51.568;5.048;2023-05-28T08:48:41;102054.94;;;19.64;54.91
69535;BME280;56754;51.568;5.048;2023-05-28T08:51:07;102056.19;;;19.67;54.67
69535;BME280;56754;51.568;5.048;2023-05-28T08:53:46;102053.94;;;19.69;54.82
69535;BME280;56754;51.568;5.048;2023-05-28T08:56:12;102047.38;;;19.70;54.95
69535;BME280;56754;51.568;5.048;2023-05-28T08:58:38;102047.03;;;19.71;54.65
69535;BME280;56754;51.568;5.048;2023-05-28T09:01:08;102052.94;;;19.73;56.15
69535;BME280;56754;51.568;5.048;2023-05-28T09:03:34;102046.72;;;19.73;55.83
69535;BME280;56754;51.568;5.048;2023-05-28T09:06:00;102047.50;;;19.73;55.87
69535;BME280;56754;51.568;5.048;2023-05-28T09:08:25;102042.09;;;19.73;56.71
69535;BME280;56754;51.568;5.048;2023-05-28T09:10:51;102045.59;;;19.74;55.71
69535;BME280;56754;51.568;5.048;2023-05-28T09:13:20;102049.88;;;19.75;56.55
69535;BME280;56754;51.568;5.048;2023-05-28T09:15:50;102041.41;;;19.76;56.65
69535;BME280;56754;51.568;5.048;2023-05-28T09:18:19;102033.25;;;19.76;56.69
69535;BME280;56754;51.568;5.048;2023-05-28T09:20:44;102046.47;;;19.78;56.66
69535;BME280;56754;51.568;5.048;2023-05-28T09:23:10;102040.72;;;19.80;56.59
69535;BME280;56754;51.568;5.048;2023-05-28T09:25:36;102043.06;;;19.81;56.27
69535;BME280;56754;51.568;5.048;2023-05-28T09:28:02;102038.44;;;19.82;56.51
69535;BME280;56754;51.568;5.048;2023-05-28T09:30:28;102048.16;;;19.83;56.53
69535;BME280;56754;51.568;5.048;2023-05-28T09:33:00;102034.25;;;19.84;56.38
69535;BME280;56754;51.568;5.048;2023-05-28T09:35:26;102033.91;;;19.86;56.49
69535;BME280;56754;51.568;5.048;2023-05-28T09:38:08;102034.69;;;19.86;56.44
69535;BME280;56754;51.568;5.048;2023-05-28T09:40:39;102034.38;;;19.88;56.27
69535;BME280;56754;51.568;5.048;2023-05-28T09:43:05;102033.56;;;19.87;56.17
69535;BME280;56754;51.568;5.048;2023-05-28T09:45:30;102033.22;;;19.89;56.19
69535;BME280;56754;51.568;5.048;2023-05-28T09:47:55;102033.69;;;19.91;56.02
69535;BME280;56754;51.568;5.048;2023-05-28T09:50:21;102027.13;;;19.92;56.12
69535;BME280;56754;51.568;5.048;2023-05-28T09:52:46;102032.53;;;19.92;56.18
69535;BME280;56754;51.568;5.048;2023-05-28T09:55:17;102020.53;;;19.93;54.99
69535;BME280;56754;51.568;5.048;2023-05-28T09:57:45;102023.72;;;19.95;56.05
69535;BME280;56754;51.568;5.048;2023-05-28T10:00:14;102019.06;;;19.95;56.02
69535;BME280;56754;51.568;5.048;2023-05-28T10:02:50;102033.09;;;19.97;55.98
69535;BME280;56754;51.568;5.048;2023-05-28T10:05:21;102028.44;;;19.98;55.88
69535;BME280;56754;51.568;5.048;2023-05-28T10:07:48;102030.00;;;19.99;55.91
69535;BME280;56754;51.568;5.048;2023-05-28T10:10:18;102028.13;;;19.99;55.51
69535;BME280;56754;51.568;5.048;2023-05-28T10:12:45;102026.97;;;20.00;55.81
69535;BME280;56754;51.568;5.048;2023-05-28T10:15:11;102026.97;;;20.00;55.66
69535;BME280;56754;51.568;5.048;2023-05-28T10:17:37;102027.75;;;20.01;55.45
69535;BME280;56754;51.568;5.048;2023-05-28T10:20:03;102022.78;;;20.03;55.75
69535;BME280;56754;51.568;5.048;2023-05-28T10:22:28;102032.50;;;20.04;55.87
69535;BME280;56754;51.568;5.048;2023-05-28T10:24:54;102023.22;;;20.05;55.61
69535;BME280;56754;51.568;5.048;2023-05-28T10:27:19;102039.94;;;20.07;55.57
69535;BME280;56754;51.568;5.048;2023-05-28T10:29:45;102033.38;;;20.08;55.45
69535;BME280;56754;51.568;5.048;2023-05-28T10:32:14;102031.47;;;20.09;55.50
69535;BME280;56754;51.568;5.048;2023-05-28T10:34:39;102026.47;;;20.11;55.46
69535;BME280;56754;51.568;5.048;2023-05-28T10:37:09;102035.84;;;20.13;55.49
69535;BME280;56754;51.568;5.048;2023-05-28T10:39:44;102033.94;;;20.14;55.48
69535;BME280;56754;51.568;5.048;2023-05-28T10:42:14;102040.94;;;20.15;55.23
69535;BME280;56754;51.568;5.048;2023-05-28T10:44:53;102035.16;;;20.16;55.42
69535;BME280;56754;51.568;5.048;2023-05-28T10:47:32;102035.63;;;20.18;55.21
69535;BME280;56754;51.568;5.048;2023-05-28T10:49:58;102031.75;;;20.19;55.37
69535;BME280;56754;51.568;5.048;2023-05-28T10:52:24;102030.66;;;20.20;55.30
69535;BME280;56754;51.568;5.048;2023-05-28T10:54:51;102041.94;;;20.22;55.26
69535;BME280;56754;51.568;5.048;2023-05-28T10:57:18;102035.81;;;20.26;55.12
69535;BME280;56754;51.568;5.048;2023-05-28T10:59:48;102033.91;;;20.26;55.31
69535;BME280;56754;51.568;5.048;2023-05-28T11:02:24;102033.91;;;20.26;55.05
69535;BME280;56754;51.568;5.048;2023-05-28T11:04:56;102033.53;;;20.28;55.10
69535;BME280;56754;51.568;5.048;2023-05-28T11:09:58;102037.50;;;20.30;54.96
69535;BME280;56754;51.568;5.048;2023-05-28T11:12:27;102043.72;;;20.31;55.07
69535;BME280;56754;51.568;5.048;2023-05-28T11:14:53;102033.31;;;20.33;54.93
69535;BME280;56754;51.568;5.048;2023-05-28T11:17:19;102028.66;;;20.33;54.79
69535;BME280;56754;51.568;5.048;2023-05-28T11:19:49;102041.88;;;20.35;54.73
69535;BME280;56754;51.568;5.048;2023-05-28T11:22:16;102027.97;;;20.36;54.86
69535;BME280;56754;51.568;5.048;2023-05-28T11:25:06;102031.00;;;20.35;55.09
69535;BME280;56754;51.568;5.048;2023-05-28T11:27:32;102034.19;;;20.37;54.85
69535;BME280;56754;51.568;5.048;2023-05-28T11:29:59;102032.25;;;20.37;54.68
69535;BME280;56754;51.568;5.048;2023-05-28T11:32:26;102029.97;;;20.39;54.76
69535;BME280;56754;51.568;5.048;2023-05-28T11:34:53;102025.69;;;20.38;54.71
69535;BME280;56754;51.568;5.048;2023-05-28T11:37:26;102024.09;;;20.37;54.87
69535;BME280;56754;51.568;5.048;2023-05-28T11:39:54;102029.19;;;20.39;54.81
69535;BME280;56754;51.568;5.048;2023-05-28T11:42:21;102021.38;;;20.37;54.66
69535;BME280;56754;51.568;5.048;2023-05-28T11:44:47;102026.81;;;20.37;54.79
69535;BME280;56754;51.568;5.048;2023-05-28T11:47:13;102034.63;;;20.39;54.77
69535;BME280;56754;51.568;5.048;2023-05-28T11:49:41;102031.91;;;20.39;54.65
69535;BME280;56754;51.568;5.048;2023-05-28T11:52:18;102029.97;;;20.39;55.07
69535;BME280;56754;51.568;5.048;2023-05-28T11:54:45;102013.69;;;20.39;54.50
69535;BME280;56754;51.568;5.048;2023-05-28T11:57:14;102015.63;;;20.39;54.62
69535;BME280;56754;51.568;5.048;2023-05-28T11:59:41;102028.06;;;20.40;54.55
69535;BME280;56754;51.568;5.048;2023-05-28T12:02:16;102016.50;;;20.43;54.62
69535;BME280;56754;51.568;5.048;2023-05-28T12:04:57;102015.72;;;20.42;54.22
69535;BME280;56754;51.568;5.048;2023-05-28T12:07:31;102007.56;;;20.42;54.49
69535;BME280;56754;51.568;5.048;2023-05-28T12:10:04;102021.94;;;20.43;54.57
69535;BME280;56754;51.568;5.048;2023-05-28T12:12:32;102011.84;;;20.43;54.58
69535;BME280;56754;51.568;5.048;2023-05-28T12:14:57;102008.78;;;20.45;54.46
69535;BME280;56754;51.568;5.048;2023-05-28T12:17:23;102010.72;;;20.44;54.42
69535;BME280;56754;51.568;5.048;2023-05-28T12:19:48;102009.59;;;20.45;54.15
69535;BME280;56754;51.568;5.048;2023-05-28T12:22:14;102011.97;;;20.47;54.29
69535;BME280;56754;51.568;5.048;2023-05-28T12:24:49;102003.47;;;20.49;54.26
69535;BME280;56754;51.568;5.048;2023-05-28T12:27:15;102013.97;;;20.50;54.15
69535;BME280;56754;51.568;5.048;2023-05-28T12:29:40;102019.16;;;20.55;54.24
69535;BME280;56754;51.568;5.048;2023-05-28T12:32:06;102012.34;;;20.61;54.13
69535;BME280;56754;51.568;5.048;2023-05-28T12:34:31;102013.25;;;20.65;53.99
69535;BME280;56754;51.568;5.048;2023-05-28T12:36:57;102010.28;;;20.71;53.59
69535;BME280;56754;51.568;5.048;2023-05-28T12:39:22;102010.44;;;20.78;53.41
69535;BME280;56754;51.568;5.048;2023-05-28T12:41:47;102013.69;;;20.83;53.33
69535;BME280;56754;51.568;5.048;2023-05-28T12:44:12;102007.63;;;20.90;52.90
69535;BME280;56754;51.568;5.048;2023-05-28T12:46:38;102011.25;;;20.94;52.72
69535;BME280;56754;51.568;5.048;2023-05-28T12:49:03;101994.22;;;20.97;52.47
69535;BME280;56754;51.568;5.048;2023-05-28T12:51:29;101997.81;;;21.01;52.48